TUX008 DTTA-DTTJ
Flight info
| Callsign | TUX008 |
|---|---|
| Flight time | 0h 36m |
| Altitude | 23000 |
| Route | GIBLI2C GIBLI A411 MON UA411 ELJEM A411 SFX UA411 JBA |
| Aircraft | A320/M-SDE3FGHIRWY/LB1 |
Departure
| Time | 2026-04-20 20:44 |
|---|---|
| Airport | Tunis Carthage International Airport (DTTA) |
Arrival
| Time | 2026-04-20 21:20 |
|---|---|
| Airport | Djerba Zarzis International Airport (DTTJ) |
| Time | Latitude | Longitude | Altitude | Speed | Heading |
|---|---|---|---|---|---|
| 2026-04-20 20:17 | 36.84842 | 10.22104 | 29 ft | 0 kts | 255° |
| 2026-04-20 20:39 | 36.84840 | 10.22090 | 30 ft | 3 kts | 258° |
| 2026-04-20 20:39 | 36.84838 | 10.22056 | 30 ft | 5 kts | 278° |
| 2026-04-20 20:40 | 36.84868 | 10.22037 | 30 ft | 6 kts | 1° |
| 2026-04-20 20:40 | 36.84902 | 10.22077 | 30 ft | 8 kts | 75° |
| 2026-04-20 20:40 | 36.84893 | 10.22156 | 30 ft | 11 kts | 100° |
| 2026-04-20 20:40 | 36.84878 | 10.22259 | 30 ft | 13 kts | 102° |
| 2026-04-20 20:41 | 36.84886 | 10.22361 | 30 ft | 13 kts | 33° |
| 2026-04-20 20:41 | 36.84982 | 10.22388 | 31 ft | 15 kts | 354° |
| 2026-04-20 20:41 | 36.85035 | 10.22278 | 31 ft | 16 kts | 292° |
| 2026-04-20 20:41 | 36.85082 | 10.22138 | 31 ft | 19 kts | 292° |
| 2026-04-20 20:42 | 36.85134 | 10.21979 | 30 ft | 21 kts | 292° |
| 2026-04-20 20:42 | 36.85187 | 10.21823 | 30 ft | 15 kts | 294° |
| 2026-04-20 20:42 | 36.85246 | 10.21719 | 30 ft | 16 kts | 339° |
| 2026-04-20 20:42 | 36.85352 | 10.21753 | 30 ft | 16 kts | 24° |
| 2026-04-20 20:43 | 36.85405 | 10.21826 | 32 ft | 11 kts | 94° |
| 2026-04-20 20:43 | 36.85394 | 10.21865 | 32 ft | 0 kts | 113° |
| 2026-04-20 20:43 | 36.85361 | 10.21964 | 32 ft | 43 kts | 112° |
| 2026-04-20 20:44 | 36.85157 | 10.22575 | 34 ft | 106 kts | 112° |
| 2026-04-20 20:44 | 36.84806 | 10.23630 | 44 ft | 153 kts | 112° |
| 2026-04-20 20:44 | 36.84402 | 10.24837 | 629 ft | 150 kts | 114° |
| 2026-04-20 20:44 | 36.84001 | 10.26043 | 1191 ft | 151 kts | 115° |
| 2026-04-20 20:45 | 36.83602 | 10.27258 | 1770 ft | 153 kts | 116° |
| 2026-04-20 20:45 | 36.83166 | 10.28566 | 2046 ft | 173 kts | 116° |
| 2026-04-20 20:45 | 36.82546 | 10.29933 | 2303 ft | 191 kts | 141° |
| 2026-04-20 20:45 | 36.81305 | 10.30624 | 2628 ft | 206 kts | 175° |
| 2026-04-20 20:46 | 36.79868 | 10.30415 | 3091 ft | 215 kts | 193° |
| 2026-04-20 20:46 | 36.78381 | 10.30038 | 3784 ft | 219 kts | 193° |
| 2026-04-20 20:46 | 36.76883 | 10.29690 | 4621 ft | 221 kts | 193° |
| 2026-04-20 20:46 | 36.75354 | 10.29337 | 5352 ft | 226 kts | 194° |
| 2026-04-20 20:47 | 36.73786 | 10.29054 | 6095 ft | 233 kts | 184° |
| 2026-04-20 20:47 | 36.72156 | 10.29427 | 6693 ft | 251 kts | 165° |
| 2026-04-20 20:47 | 36.70433 | 10.30200 | 7059 ft | 275 kts | 163° |
| 2026-04-20 20:47 | 36.68580 | 10.31071 | 7634 ft | 289 kts | 162° |
| 2026-04-20 20:48 | 36.66681 | 10.31981 | 8435 ft | 295 kts | 162° |
| 2026-04-20 20:48 | 36.64748 | 10.32908 | 9245 ft | 300 kts | 162° |
| 2026-04-20 20:48 | 36.62782 | 10.33843 | 10027 ft | 305 kts | 162° |
| 2026-04-20 20:48 | 36.60738 | 10.34805 | 10362 ft | 325 kts | 162° |
| 2026-04-20 20:49 | 36.58571 | 10.35815 | 10590 ft | 345 kts | 162° |
| 2026-04-20 20:49 | 36.56290 | 10.36877 | 11181 ft | 353 kts | 162° |
| 2026-04-20 20:49 | 36.53982 | 10.37952 | 11902 ft | 356 kts | 161° |
| 2026-04-20 20:49 | 36.51652 | 10.39039 | 12653 ft | 358 kts | 161° |
| 2026-04-20 20:50 | 36.49305 | 10.40136 | 13391 ft | 361 kts | 160° |
| 2026-04-20 20:50 | 36.46945 | 10.41242 | 14095 ft | 364 kts | 160° |
| 2026-04-20 20:50 | 36.44566 | 10.42354 | 14708 ft | 367 kts | 161° |
| 2026-04-20 20:50 | 36.42165 | 10.43470 | 15317 ft | 370 kts | 161° |
| 2026-04-20 20:51 | 36.39748 | 10.44594 | 15922 ft | 373 kts | 161° |
| 2026-04-20 20:51 | 36.37309 | 10.45732 | 16524 ft | 376 kts | 161° |
| 2026-04-20 20:51 | 36.34855 | 10.46898 | 17133 ft | 379 kts | 160° |
| 2026-04-20 20:51 | 36.32384 | 10.48087 | 17744 ft | 382 kts | 160° |
| 2026-04-20 20:52 | 36.29890 | 10.49294 | 18351 ft | 386 kts | 160° |
| 2026-04-20 20:52 | 36.27381 | 10.50510 | 18894 ft | 389 kts | 160° |
| 2026-04-20 20:52 | 36.24849 | 10.51725 | 19456 ft | 392 kts | 160° |
| 2026-04-20 20:52 | 36.22291 | 10.52938 | 19999 ft | 396 kts | 161° |
| 2026-04-20 20:53 | 36.19701 | 10.54153 | 20540 ft | 399 kts | 161° |
| 2026-04-20 20:53 | 36.17121 | 10.55358 | 21049 ft | 403 kts | 161° |
| 2026-04-20 20:53 | 36.14474 | 10.56594 | 21558 ft | 407 kts | 161° |
| 2026-04-20 20:53 | 36.11812 | 10.57839 | 22074 ft | 411 kts | 161° |
| 2026-04-20 20:54 | 36.09122 | 10.59100 | 22587 ft | 415 kts | 161° |
| 2026-04-20 20:54 | 36.06409 | 10.60374 | 22931 ft | 418 kts | 161° |
| 2026-04-20 20:54 | 36.03691 | 10.61653 | 23002 ft | 416 kts | 161° |
| 2026-04-20 20:54 | 36.00987 | 10.62924 | 23005 ft | 416 kts | 161° |
| 2026-04-20 20:55 | 35.98284 | 10.64188 | 23007 ft | 415 kts | 161° |
| 2026-04-20 20:55 | 35.95581 | 10.65449 | 23008 ft | 415 kts | 161° |
| 2026-04-20 20:55 | 35.92878 | 10.66709 | 23009 ft | 415 kts | 161° |
| 2026-04-20 20:55 | 35.90176 | 10.67970 | 23010 ft | 415 kts | 161° |
| 2026-04-20 20:56 | 35.87470 | 10.69234 | 23010 ft | 415 kts | 161° |
| 2026-04-20 20:56 | 35.84770 | 10.70496 | 23002 ft | 415 kts | 161° |
| 2026-04-20 20:56 | 35.82060 | 10.71761 | 23002 ft | 415 kts | 161° |
| 2026-04-20 20:56 | 35.79354 | 10.73023 | 23003 ft | 415 kts | 161° |
| 2026-04-20 20:57 | 35.76645 | 10.74103 | 22998 ft | 414 kts | 169° |
| 2026-04-20 20:57 | 35.73813 | 10.74620 | 22995 ft | 410 kts | 179° |
| 2026-04-20 20:57 | 35.70966 | 10.74571 | 22999 ft | 408 kts | 186° |
| 2026-04-20 20:57 | 35.68124 | 10.74397 | 23002 ft | 408 kts | 185° |
| 2026-04-20 20:58 | 35.65283 | 10.74229 | 23005 ft | 408 kts | 185° |
| 2026-04-20 20:58 | 35.62440 | 10.74068 | 23008 ft | 409 kts | 185° |
| 2026-04-20 20:58 | 35.59599 | 10.73908 | 23012 ft | 409 kts | 185° |
| 2026-04-20 20:58 | 35.56755 | 10.73748 | 23015 ft | 409 kts | 185° |
| 2026-04-20 20:59 | 35.53910 | 10.73587 | 23019 ft | 409 kts | 185° |
| 2026-04-20 20:59 | 35.51059 | 10.73425 | 23023 ft | 409 kts | 185° |
| 2026-04-20 20:59 | 35.48243 | 10.73265 | 23025 ft | 409 kts | 185° |
| 2026-04-20 20:59 | 35.45393 | 10.73106 | 23028 ft | 409 kts | 185° |
| 2026-04-20 21:00 | 35.42549 | 10.72945 | 23029 ft | 409 kts | 185° |
| 2026-04-20 21:00 | 35.39701 | 10.72786 | 23031 ft | 409 kts | 185° |
| 2026-04-20 21:00 | 35.36854 | 10.72630 | 23031 ft | 409 kts | 185° |
| 2026-04-20 21:00 | 35.34009 | 10.72476 | 23030 ft | 409 kts | 185° |
| 2026-04-20 21:01 | 35.31162 | 10.72324 | 23031 ft | 409 kts | 185° |
| 2026-04-20 21:01 | 35.28351 | 10.72174 | 23030 ft | 409 kts | 185° |
| 2026-04-20 21:01 | 35.25509 | 10.72020 | 23023 ft | 408 kts | 185° |
| 2026-04-20 21:01 | 35.22666 | 10.71865 | 23026 ft | 408 kts | 185° |
| 2026-04-20 21:02 | 35.19826 | 10.71711 | 23028 ft | 408 kts | 185° |
| 2026-04-20 21:02 | 35.16990 | 10.71560 | 23025 ft | 408 kts | 185° |
| 2026-04-20 21:02 | 35.14151 | 10.71413 | 23030 ft | 408 kts | 185° |
| 2026-04-20 21:02 | 35.11316 | 10.71267 | 23035 ft | 408 kts | 185° |
| 2026-04-20 21:03 | 35.08482 | 10.71121 | 23031 ft | 407 kts | 185° |
| 2026-04-20 21:03 | 35.05647 | 10.70972 | 23034 ft | 407 kts | 185° |
| 2026-04-20 21:03 | 35.02813 | 10.70818 | 23033 ft | 407 kts | 185° |
| 2026-04-20 21:03 | 34.99977 | 10.70663 | 23022 ft | 407 kts | 185° |
| 2026-04-20 21:04 | 34.97149 | 10.70509 | 23018 ft | 407 kts | 185° |
| 2026-04-20 21:04 | 34.94354 | 10.70351 | 23018 ft | 407 kts | 185° |
| 2026-04-20 21:04 | 34.91494 | 10.70174 | 22789 ft | 407 kts | 185° |
| 2026-04-20 21:04 | 34.88656 | 10.69990 | 22177 ft | 406 kts | 185° |
| 2026-04-20 21:05 | 34.85847 | 10.69806 | 21670 ft | 404 kts | 185° |
| 2026-04-20 21:05 | 34.83057 | 10.69624 | 21321 ft | 398 kts | 185° |
| 2026-04-20 21:05 | 34.80338 | 10.69449 | 20840 ft | 395 kts | 185° |
| 2026-04-20 21:05 | 34.77598 | 10.69274 | 20377 ft | 393 kts | 185° |
| 2026-04-20 21:06 | 34.74876 | 10.69100 | 19916 ft | 390 kts | 185° |
| 2026-04-20 21:06 | 34.72181 | 10.68927 | 19459 ft | 386 kts | 185° |
| 2026-04-20 21:06 | 34.69535 | 10.68678 | 18703 ft | 378 kts | 188° |
| 2026-04-20 21:06 | 34.66958 | 10.68301 | 18122 ft | 366 kts | 189° |
| 2026-04-20 21:07 | 34.64481 | 10.67865 | 17629 ft | 352 kts | 191° |
| 2026-04-20 21:07 | 34.62105 | 10.67426 | 17178 ft | 338 kts | 191° |
| 2026-04-20 21:07 | 34.59818 | 10.67008 | 16744 ft | 327 kts | 191° |
| 2026-04-20 21:07 | 34.57607 | 10.66621 | 16324 ft | 317 kts | 190° |
| 2026-04-20 21:08 | 34.55428 | 10.66253 | 15903 ft | 317 kts | 190° |
| 2026-04-20 21:08 | 34.53236 | 10.65887 | 15490 ft | 318 kts | 190° |
| 2026-04-20 21:08 | 34.51783 | 10.65647 | 15208 ft | 318 kts | 190° |
| 2026-04-20 21:08 | 34.49584 | 10.65285 | 14796 ft | 319 kts | 191° |
| 2026-04-20 21:09 | 34.47385 | 10.64925 | 14374 ft | 319 kts | 190° |
| 2026-04-20 21:09 | 34.45176 | 10.64568 | 13953 ft | 320 kts | 191° |
| 2026-04-20 21:09 | 34.42966 | 10.64212 | 13500 ft | 320 kts | 189° |
| 2026-04-20 21:09 | 34.40754 | 10.63856 | 13070 ft | 320 kts | 190° |
| 2026-04-20 21:10 | 34.38551 | 10.63499 | 12650 ft | 319 kts | 191° |
| 2026-04-20 21:10 | 34.36384 | 10.63147 | 12236 ft | 318 kts | 191° |
| 2026-04-20 21:10 | 34.34187 | 10.62790 | 11821 ft | 318 kts | 191° |
| 2026-04-20 21:10 | 34.31997 | 10.62434 | 11409 ft | 318 kts | 189° |
| 2026-04-20 21:11 | 34.29802 | 10.62075 | 10995 ft | 318 kts | 190° |
| 2026-04-20 21:11 | 34.27606 | 10.61718 | 10581 ft | 318 kts | 189° |
| 2026-04-20 21:11 | 34.25415 | 10.61365 | 10214 ft | 316 kts | 189° |
| 2026-04-20 21:11 | 34.23266 | 10.61020 | 10065 ft | 307 kts | 189° |
| 2026-04-20 21:12 | 34.21174 | 10.60684 | 9925 ft | 299 kts | 189° |
| 2026-04-20 21:12 | 34.19086 | 10.60347 | 9432 ft | 309 kts | 189° |
| 2026-04-20 21:12 | 34.16968 | 10.60004 | 9199 ft | 302 kts | 189° |
| 2026-04-20 21:12 | 34.14897 | 10.59669 | 8747 ft | 297 kts | 189° |
| 2026-04-20 21:13 | 34.12856 | 10.59336 | 8165 ft | 294 kts | 190° |
| 2026-04-20 21:13 | 34.10843 | 10.59007 | 7624 ft | 290 kts | 189° |
| 2026-04-20 21:13 | 34.08858 | 10.58685 | 7084 ft | 285 kts | 190° |
| 2026-04-20 21:13 | 34.06926 | 10.58373 | 6555 ft | 281 kts | 190° |
| 2026-04-20 21:14 | 34.04994 | 10.58064 | 5997 ft | 278 kts | 190° |
| 2026-04-20 21:14 | 34.03095 | 10.57759 | 5486 ft | 273 kts | 190° |
| 2026-04-20 21:14 | 34.01220 | 10.57460 | 4928 ft | 270 kts | 189° |
| 2026-04-20 21:14 | 33.99361 | 10.57163 | 4346 ft | 269 kts | 189° |
| 2026-04-20 21:15 | 33.97544 | 10.56872 | 4075 ft | 255 kts | 189° |
| 2026-04-20 21:15 | 33.95837 | 10.56599 | 3943 ft | 237 kts | 189° |
| 2026-04-20 21:15 | 33.94236 | 10.56343 | 3840 ft | 227 kts | 189° |
| 2026-04-20 21:15 | 33.92707 | 10.56097 | 3736 ft | 217 kts | 189° |
| 2026-04-20 21:16 | 33.91244 | 10.55934 | 3644 ft | 206 kts | 179° |
| 2026-04-20 21:16 | 33.89868 | 10.56268 | 3552 ft | 201 kts | 161° |
| 2026-04-20 21:16 | 33.88663 | 10.57109 | 3475 ft | 202 kts | 141° |
| 2026-04-20 21:16 | 33.87736 | 10.58362 | 3201 ft | 208 kts | 124° |
| 2026-04-20 21:17 | 33.87184 | 10.59993 | 2681 ft | 213 kts | 103° |
| 2026-04-20 21:17 | 33.87133 | 10.61758 | 2318 ft | 208 kts | 92° |
| 2026-04-20 21:17 | 33.87180 | 10.63466 | 2036 ft | 202 kts | 91° |
| 2026-04-20 21:17 | 33.87224 | 10.65141 | 1775 ft | 199 kts | 92° |
| 2026-04-20 21:18 | 33.87267 | 10.66773 | 1549 ft | 189 kts | 93° |
| 2026-04-20 21:18 | 33.87308 | 10.68304 | 1277 ft | 175 kts | 92° |
| 2026-04-20 21:18 | 33.87344 | 10.69655 | 1064 ft | 153 kts | 92° |
| 2026-04-20 21:18 | 33.87376 | 10.70895 | 882 ft | 143 kts | 94° |
| 2026-04-20 21:19 | 33.87405 | 10.72078 | 698 ft | 141 kts | 92° |
| 2026-04-20 21:19 | 33.87436 | 10.73241 | 530 ft | 137 kts | 92° |
| 2026-04-20 21:19 | 33.87465 | 10.74384 | 350 ft | 136 kts | 94° |
| 2026-04-20 21:20 | 33.87521 | 10.76625 | 24 ft | 123 kts | 91° |
| 2026-04-20 21:20 | 33.87536 | 10.77421 | 20 ft | 72 kts | 88° |
| 2026-04-20 21:20 | 33.87549 | 10.77913 | 21 ft | 49 kts | 88° |
| 2026-04-20 21:20 | 33.87559 | 10.78291 | 19 ft | 38 kts | 88° |
| 2026-04-20 21:21 | 33.87564 | 10.78511 | 19 ft | 18 kts | 93° |
| 2026-04-20 21:21 | 33.87513 | 10.78600 | 21 ft | 14 kts | 171° |
| 2026-04-20 21:21 | 33.87415 | 10.78575 | 22 ft | 15 kts | 225° |
| 2026-04-20 21:21 | 33.87397 | 10.78456 | 27 ft | 14 kts | 268° |
| 2026-04-20 21:22 | 33.87395 | 10.78334 | 27 ft | 16 kts | 268° |
| 2026-04-20 21:22 | 33.87399 | 10.78191 | 26 ft | 18 kts | 272° |
| 2026-04-20 21:22 | 33.87395 | 10.78030 | 26 ft | 19 kts | 268° |
| 2026-04-20 21:22 | 33.87391 | 10.77884 | 27 ft | 15 kts | 268° |
| 2026-04-20 21:23 | 33.87388 | 10.77763 | 26 ft | 13 kts | 269° |
| 2026-04-20 21:23 | 33.87355 | 10.77722 | 27 ft | 9 kts | 174° |
| 2026-04-20 21:23 | 33.87322 | 10.77724 | 27 ft | 1 kts | 177° |
| 2026-04-20 21:23 | 33.87319 | 10.77724 | 27 ft | 0 kts | 178° |